Time;durP1;ratioP1;P1;durP2;ratioP2;P2;SDS_P1;SDS_P2;PMS_P1;PMS_P2;Temp;Humidity;BMP_temperature;BMP_pressure;BME280_temperature;BME280_humidity;BME280_pressure;Samples;Min_cycle;Max_cycle;Signal;HPM_P1;HPM_P2
2023/06/10 00:00:01;;;;;;;5.55;3.33;;;;;;;;;;5135463;27;20518;-61
2023/06/10 00:02:27;;;;;;;4.60;3.45;;;;;;;;;;5128352;27;20059;-61
2023/06/10 00:04:55;;;;;;;7.85;3.55;;;;;;;;;;5128973;27;20573;-60
2023/06/10 00:07:21;;;;;;;7.05;3.03;;;;;;;;;;5142160;27;20058;-58
2023/06/10 00:09:48;;;;;;;6.05;3.55;;;;;;;;;;5132348;27;20693;-61
2023/06/10 00:12:16;;;;;;;7.30;3.15;;;;;;;;;;5144455;27;20120;-61
2023/06/10 00:14:43;;;;;;;4.18;2.97;;;;;;;;;;5135912;27;20130;-61
2023/06/10 00:17:09;;;;;;;4.13;3.28;;;;;;;;;;5137283;27;20058;-59
2023/06/10 00:19:37;;;;;;;5.32;2.88;;;;;;;;;;5144896;27;20043;-61
2023/06/10 00:22:04;;;;;;;5.25;3.30;;;;;;;;;;5129002;27;20054;-61
2023/06/10 00:24:31;;;;;;;5.43;3.13;;;;;;;;;;5139974;27;20471;-61
2023/06/10 00:26:57;;;;;;;4.38;3.20;;;;;;;;;;5142927;27;20566;-61
2023/06/10 00:29:23;;;;;;;4.63;3.38;;;;;;;;;;5145759;27;20150;-61
2023/06/10 00:31:50;;;;;;;5.07;2.88;;;;;;;;;;5142646;27;20341;-61
2023/06/10 00:34:16;;;;;;;6.65;3.05;;;;;;;;;;5145708;27;20507;-60
2023/06/10 00:36:43;;;;;;;8.75;3.08;;;;;;;;;;5141221;27;20051;-60
2023/06/10 00:39:09;;;;;;;5.65;3.00;;;;;;;;;;5119097;27;20125;-61
2023/06/10 00:41:36;;;;;;;4.93;2.97;;;;;;;;;;5141046;27;20095;-61
2023/06/10 00:44:02;;;;;;;7.68;3.45;;;;;;;;;;5127264;27;20142;-60
2023/06/10 00:46:29;;;;;;;5.22;3.38;;;;;;;;;;5143516;27;20059;-61
2023/06/10 00:48:56;;;;;;;3.20;2.58;;;;;;;;;;5133430;27;20055;-61
2023/06/10 00:51:22;;;;;;;5.43;3.25;;;;;;;;;;5135591;27;20135;-61
2023/06/10 00:53:49;;;;;;;5.43;2.95;;;;;;;;;;5134243;27;20050;-61
2023/06/10 00:56:15;;;;;;;6.47;3.35;;;;;;;;;;5136162;27;20135;-61
2023/06/10 00:58:42;;;;;;;4.85;2.92;;;;;;;;;;5130157;27;20043;-60
2023/06/10 01:01:10;;;;;;;5.45;3.10;;;;;;;;;;5140044;27;20058;-61
2023/06/10 01:03:38;;;;;;;14.07;3.42;;;;;;;;;;5135090;27;20508;-61
2023/06/10 01:06:09;;;;;;;3.67;2.90;;;;;;;;;;5135852;27;20089;-61
2023/06/10 01:08:46;;;;;;;4.80;2.45;;;;;;;;;;5141728;27;20062;-61
2023/06/10 01:11:20;;;;;;;4.22;3.00;;;;;;;;;;5133678;27;20047;-61
2023/06/10 01:13:51;;;;;;;6.30;2.72;;;;;;;;;;5130030;27;20425;-61
2023/06/10 01:16:19;;;;;;;3.97;2.80;;;;;;;;;;5144708;27;20062;-60
2023/06/10 01:18:45;;;;;;;5.38;2.67;;;;;;;;;;5139099;27;20054;-61
2023/06/10 01:21:19;;;;;;;3.42;2.88;;;;;;;;;;5139303;27;20048;-60
2023/06/10 01:23:45;;;;;;;3.92;2.80;;;;;;;;;;5142762;27;20063;-60
2023/06/10 01:26:12;;;;;;;4.88;3.15;;;;;;;;;;5141076;27;20039;-60
2023/06/10 01:28:43;;;;;;;5.60;2.83;;;;;;;;;;5138302;27;20522;-60
2023/06/10 01:31:16;;;;;;;5.30;3.10;;;;;;;;;;5131726;27;20162;-61
2023/06/10 01:33:45;;;;;;;7.95;3.13;;;;;;;;;;5126226;27;20134;-60
2023/06/10 01:36:12;;;;;;;3.55;2.70;;;;;;;;;;5143759;27;20051;-60
2023/06/10 01:38:45;;;;;;;7.00;3.42;;;;;;;;;;5130437;27;20497;-60
2023/06/10 01:41:13;;;;;;;5.40;3.08;;;;;;;;;;5132901;27;20081;-60
2023/06/10 01:43:39;;;;;;;5.43;3.00;;;;;;;;;;5144346;27;20082;-60
2023/06/10 01:46:06;;;;;;;5.60;2.90;;;;;;;;;;5125587;27;20138;-60
2023/06/10 01:48:32;;;;;;;9.23;2.97;;;;;;;;;;5137865;27;20055;-60
2023/06/10 01:50:59;;;;;;;4.75;3.22;;;;;;;;;;5140802;27;20502;-60
2023/06/10 01:53:25;;;;;;;4.18;3.05;;;;;;;;;;5143822;27;20134;-58
2023/06/10 01:55:52;;;;;;;6.97;3.58;;;;;;;;;;5132426;27;20055;-60
2023/06/10 01:58:18;;;;;;;7.25;3.15;;;;;;;;;;5129153;27;20048;-60
2023/06/10 02:00:44;;;;;;;3.67;2.97;;;;;;;;;;5129263;27;20055;-59
2023/06/10 02:03:11;;;;;;;5.68;3.00;;;;;;;;;;5130901;27;20055;-58
2023/06/10 02:05:37;;;;;;;4.75;3.10;;;;;;;;;;5131082;27;20529;-60
2023/06/10 02:08:04;;;;;;;5.68;3.60;;;;;;;;;;5139769;27;20051;-60
2023/06/10 02:10:30;;;;;;;3.78;2.88;;;;;;;;;;5138426;27;20047;-61
2023/06/10 02:12:56;;;;;;;5.25;3.50;;;;;;;;;;5120587;27;20062;-59
2023/06/10 02:15:23;;;;;;;12.60;4.25;;;;;;;;;;5143341;27;20143;-60
2023/06/10 02:17:50;;;;;;;5.28;3.80;;;;;;;;;;5127827;27;20053;-61
2023/06/10 02:20:17;;;;;;;10.85;3.50;;;;;;;;;;5141626;27;20143;-60
2023/06/10 02:22:43;;;;;;;4.28;3.05;;;;;;;;;;5135265;27;20047;-60
2023/06/10 02:25:10;;;;;;;5.80;2.78;;;;;;;;;;5142832;27;20130;-61
2023/06/10 02:27:37;;;;;;;5.97;3.40;;;;;;;;;;5127441;27;20051;-61
2023/06/10 02:30:03;;;;;;;4.78;2.92;;;;;;;;;;5137773;27;20503;-60
2023/06/10 02:32:30;;;;;;;5.50;3.78;;;;;;;;;;5135168;27;20130;-60
2023/06/10 02:34:56;;;;;;;6.55;3.35;;;;;;;;;;5135883;27;20481;-60
2023/06/10 02:37:22;;;;;;;6.05;3.17;;;;;;;;;;5143219;27;20043;-61
2023/06/10 02:39:49;;;;;;;5.18;3.15;;;;;;;;;;5129117;27;20078;-60
2023/06/10 02:42:15;;;;;;;5.50;3.90;;;;;;;;;;5132025;27;20058;-61
2023/06/10 02:44:41;;;;;;;5.20;3.47;;;;;;;;;;5143051;27;20100;-60
2023/06/10 02:47:08;;;;;;;5.60;3.40;;;;;;;;;;5134060;27;20051;-61
2023/06/10 02:49:34;;;;;;;5.90;2.97;;;;;;;;;;5141903;27;20574;-60
2023/06/10 02:52:02;;;;;;;3.97;2.85;;;;;;;;;;5126516;27;20123;-60
2023/06/10 02:54:28;;;;;;;5.88;3.30;;;;;;;;;;5136679;27;20265;-60
2023/06/10 02:56:55;;;;;;;6.70;3.35;;;;;;;;;;5142548;27;20055;-60
2023/06/10 02:59:22;;;;;;;3.78;3.15;;;;;;;;;;5134726;27;20579;-60
2023/06/10 03:01:48;;;;;;;3.38;2.85;;;;;;;;;;5136404;27;20062;-59
2023/06/10 03:04:15;;;;;;;7.43;4.00;;;;;;;;;;5131485;27;20668;-60
2023/06/10 03:06:42;;;;;;;7.25;3.50;;;;;;;;;;5139588;27;20058;-60
2023/06/10 03:09:08;;;;;;;5.97;3.20;;;;;;;;;;5143679;27;20108;-60
2023/06/10 03:11:34;;;;;;;5.00;3.67;;;;;;;;;;5141524;27;20051;-60
2023/06/10 03:14:01;;;;;;;7.03;3.90;;;;;;;;;;5126009;27;20544;-60
2023/06/10 03:16:28;;;;;;;3.72;3.00;;;;;;;;;;5141212;27;20071;-60
2023/06/10 03:18:54;;;;;;;5.90;3.00;;;;;;;;;;5143702;27;20184;-60
2023/06/10 03:21:21;;;;;;;6.55;3.47;;;;;;;;;;5141680;27;20492;-59
2023/06/10 03:23:47;;;;;;;5.20;3.08;;;;;;;;;;5128163;27;20139;-58
2023/06/10 03:26:15;;;;;;;5.13;3.20;;;;;;;;;;5133336;27;20136;-60
2023/06/10 03:28:42;;;;;;;4.65;3.30;;;;;;;;;;5123551;27;20540;-60
2023/06/10 03:31:08;;;;;;;5.57;3.03;;;;;;;;;;5138998;27;20136;-60
2023/06/10 03:33:35;;;;;;;22.15;4.50;;;;;;;;;;5120059;27;20062;-60
2023/06/10 03:36:02;;;;;;;5.57;3.45;;;;;;;;;;5140316;27;20105;-60
2023/06/10 03:38:28;;;;;;;4.82;3.00;;;;;;;;;;5137884;27;20641;-61
2023/06/10 03:40:54;;;;;;;7.70;3.67;;;;;;;;;;5131516;27;20051;-60
2023/06/10 03:43:21;;;;;;;5.35;3.33;;;;;;;;;;5137788;27;20047;-60
2023/06/10 03:45:49;;;;;;;7.18;3.17;;;;;;;;;;5130123;27;20055;-61
2023/06/10 03:48:16;;;;;;;9.05;3.55;;;;;;;;;;5138264;27;20146;-61
2023/06/10 03:50:42;;;;;;;4.18;2.80;;;;;;;;;;5126796;27;20135;-61
2023/06/10 03:53:09;;;;;;;3.83;3.22;;;;;;;;;;5126226;27;20524;-61
2023/06/10 03:55:36;;;;;;;9.07;4.30;;;;;;;;;;5139104;27;20051;-61
2023/06/10 03:58:02;;;;;;;6.00;3.38;;;;;;;;;;5137031;27;20494;-59
2023/06/10 04:00:29;;;;;;;8.48;4.05;;;;;;;;;;5145044;27;20047;-61
2023/06/10 04:02:57;;;;;;;5.28;3.40;;;;;;;;;;5129849;27;20067;-61
2023/06/10 04:05:24;;;;;;;4.22;3.35;;;;;;;;;;5126029;27;20082;-61
2023/06/10 04:07:51;;;;;;;7.28;3.67;;;;;;;;;;5139404;27;20499;-61
2023/06/10 04:10:17;;;;;;;6.13;3.47;;;;;;;;;;5144368;27;20488;-60
2023/06/10 04:12:44;;;;;;;4.03;3.15;;;;;;;;;;5144098;27;20051;-61
2023/06/10 04:15:10;;;;;;;5.13;3.08;;;;;;;;;;5126416;27;20055;-61
2023/06/10 04:17:37;;;;;;;8.00;3.42;;;;;;;;;;5136132;27;20538;-60
2023/06/10 04:20:06;;;;;;;5.55;3.33;;;;;;;;;;5140515;27;20039;-61
2023/06/10 04:22:32;;;;;;;6.25;3.38;;;;;;;;;;5139480;27;20108;-60
2023/06/10 04:24:59;;;;;;;9.57;3.55;;;;;;;;;;5142486;27;20079;-61
2023/06/10 04:27:25;;;;;;;5.72;3.58;;;;;;;;;;5137834;27;20062;-61
2023/06/10 04:29:52;;;;;;;8.40;3.45;;;;;;;;;;5139678;27;20051;-60
2023/06/10 04:32:18;;;;;;;5.60;4.13;;;;;;;;;;5137529;27;20055;-59
2023/06/10 04:34:45;;;;;;;9.43;3.72;;;;;;;;;;5125401;27;20055;-60
2023/06/10 04:37:11;;;;;;;5.63;3.65;;;;;;;;;;5139534;27;20075;-60
2023/06/10 04:39:38;;;;;;;14.98;4.22;;;;;;;;;;5142669;27;20082;-61
2023/06/10 04:42:05;;;;;;;8.23;3.83;;;;;;;;;;5132943;27;20052;-60
2023/06/10 04:44:32;;;;;;;6.47;3.75;;;;;;;;;;5134308;27;20967;-60
2023/06/10 04:46:58;;;;;;;5.70;3.58;;;;;;;;;;5123868;27;20211;-60
2023/06/10 04:49:24;;;;;;;5.90;3.45;;;;;;;;;;5141312;27;20063;-60
2023/06/10 04:51:51;;;;;;;5.28;3.63;;;;;;;;;;5146110;27;20050;-60
2023/06/10 04:54:17;;;;;;;5.03;3.65;;;;;;;;;;5139431;27;20489;-60
2023/06/10 04:56:44;;;;;;;10.27;3.78;;;;;;;;;;5137039;27;20585;-60
2023/06/10 04:59:10;;;;;;;7.85;3.67;;;;;;;;;;5138323;27;20431;-60
2023/06/10 05:01:36;;;;;;;5.57;3.95;;;;;;;;;;5141095;27;20063;-60
2023/06/10 05:04:04;;;;;;;7.93;3.85;;;;;;;;;;5137771;27;20047;-60
2023/06/10 05:06:30;;;;;;;7.22;3.63;;;;;;;;;;5144408;27;20047;-60
2023/06/10 05:08:57;;;;;;;6.43;3.65;;;;;;;;;;5144069;27;20054;-60
2023/06/10 05:11:23;;;;;;;9.18;3.70;;;;;;;;;;5139584;27;20051;-60
2023/06/10 05:13:50;;;;;;;7.90;3.70;;;;;;;;;;5143513;27;20548;-60
2023/06/10 05:16:16;;;;;;;8.15;3.65;;;;;;;;;;5145236;27;20078;-60
2023/06/10 05:18:42;;;;;;;4.72;3.60;;;;;;;;;;5130405;27;20108;-59
2023/06/10 05:21:11;;;;;;;7.68;3.88;;;;;;;;;;5142590;27;20104;-60
2023/06/10 05:23:37;;;;;;;7.13;3.60;;;;;;;;;;5142717;27;20153;-60
2023/06/10 05:26:04;;;;;;;5.85;3.28;;;;;;;;;;5135276;27;20051;-58
2023/06/10 05:28:30;;;;;;;7.35;4.03;;;;;;;;;;5128655;27;20051;-58
2023/06/10 05:30:56;;;;;;;5.65;4.05;;;;;;;;;;5144947;27;20218;-60
2023/06/10 05:33:23;;;;;;;6.40;3.80;;;;;;;;;;5131357;27;20048;-61
2023/06/10 05:35:50;;;;;;;6.82;3.83;;;;;;;;;;5134920;27;20051;-59
2023/06/10 05:38:16;;;;;;;8.43;3.53;;;;;;;;;;5130580;27;20051;-60
2023/06/10 05:40:42;;;;;;;6.18;3.58;;;;;;;;;;5125892;27;20074;-61
2023/06/10 05:43:09;;;;;;;8.05;3.70;;;;;;;;;;5136312;27;20057;-61
2023/06/10 05:45:36;;;;;;;9.18;3.70;;;;;;;;;;5134260;27;20477;-59
2023/06/10 05:48:02;;;;;;;5.95;3.65;;;;;;;;;;5137038;27;20554;-59
2023/06/10 05:50:29;;;;;;;4.63;3.20;;;;;;;;;;5141188;27;20086;-59
2023/06/10 05:52:55;;;;;;;7.50;3.70;;;;;;;;;;5140685;27;20054;-60
2023/06/10 05:55:21;;;;;;;7.63;4.22;;;;;;;;;;5140621;27;20058;-60
2023/06/10 05:57:57;;;;;;;4.45;3.42;;;;;;;;;;5134030;27;20051;-60
2023/06/10 06:00:24;;;;;;;6.68;4.03;;;;;;;;;;5140190;27;20047;-61
2023/06/10 06:02:51;;;;;;;8.38;3.60;;;;;;;;;;5142533;27;20523;-60
2023/06/10 06:05:17;;;;;;;5.90;3.67;;;;;;;;;;5143172;27;20094;-61
2023/06/10 06:07:44;;;;;;;7.00;3.58;;;;;;;;;;5144879;27;20504;-60
2023/06/10 06:10:10;;;;;;;7.05;3.88;;;;;;;;;;5136596;27;20055;-60
2023/06/10 06:12:37;;;;;;;5.47;3.90;;;;;;;;;;5142635;27;20051;-60
2023/06/10 06:15:03;;;;;;;5.75;3.30;;;;;;;;;;5135982;27;20047;-60
2023/06/10 06:17:30;;;;;;;9.80;3.25;;;;;;;;;;5143085;27;20512;-61
2023/06/10 06:19:56;;;;;;;5.85;3.70;;;;;;;;;;5139935;27;20055;-60
2023/06/10 06:22:23;;;;;;;4.55;3.72;;;;;;;;;;5133529;27;20062;-60
2023/06/10 06:24:49;;;;;;;5.35;3.60;;;;;;;;;;5108895;27;20059;-59
2023/06/10 06:27:16;;;;;;;7.63;3.70;;;;;;;;;;5130879;27;20059;-60
2023/06/10 06:29:43;;;;;;;4.45;3.10;;;;;;;;;;5138771;27;20142;-60
2023/06/10 06:32:09;;;;;;;6.47;3.88;;;;;;;;;;5133888;27;20047;-60
2023/06/10 06:34:36;;;;;;;9.70;3.78;;;;;;;;;;5142485;27;20419;-60
2023/06/10 06:37:03;;;;;;;7.57;4.63;;;;;;;;;;5124197;27;20490;-59
2023/06/10 06:39:29;;;;;;;16.58;3.97;;;;;;;;;;5140587;27;20047;-61
2023/06/10 06:41:55;;;;;;;5.63;3.88;;;;;;;;;;5132701;27;20094;-61
2023/06/10 06:44:22;;;;;;;4.50;3.42;;;;;;;;;;5135604;27;20638;-60
2023/06/10 06:46:48;;;;;;;6.68;4.20;;;;;;;;;;5137734;27;20464;-61
2023/06/10 06:49:14;;;;;;;5.53;3.45;;;;;;;;;;5124093;27;20080;-61
2023/06/10 06:51:41;;;;;;;9.07;3.50;;;;;;;;;;5125977;27;20055;-61
2023/06/10 06:54:07;;;;;;;4.65;3.10;;;;;;;;;;5116438;27;20043;-60
2023/06/10 06:56:33;;;;;;;4.80;3.08;;;;;;;;;;5137534;27;20512;-60
2023/06/10 06:59:00;;;;;;;9.98;4.22;;;;;;;;;;5131734;27;20496;-59
2023/06/10 07:01:26;;;;;;;5.60;3.67;;;;;;;;;;5139065;27;20763;-60
2023/06/10 07:03:53;;;;;;;5.47;3.22;;;;;;;;;;5132351;27;20051;-61
2023/06/10 07:06:19;;;;;;;5.13;3.33;;;;;;;;;;5123841;27;20048;-60
2023/06/10 07:08:46;;;;;;;7.03;3.40;;;;;;;;;;5124567;27;20062;-61
2023/06/10 07:11:12;;;;;;;4.35;3.03;;;;;;;;;;5136090;27;20062;-61
2023/06/10 07:13:38;;;;;;;7.43;3.08;;;;;;;;;;5144276;27;20550;-60
2023/06/10 07:16:05;;;;;;;5.10;3.20;;;;;;;;;;5125675;27;20121;-61
2023/06/10 07:18:31;;;;;;;7.88;3.78;;;;;;;;;;5133593;27;20059;-61
2023/06/10 07:20:57;;;;;;;7.38;3.88;;;;;;;;;;5142483;27;20051;-61
2023/06/10 07:23:24;;;;;;;7.03;4.07;;;;;;;;;;5136449;27;20138;-61
2023/06/10 07:25:50;;;;;;;4.55;3.42;;;;;;;;;;5133247;27;20108;-60
2023/06/10 07:28:16;;;;;;;7.72;3.88;;;;;;;;;;5136973;27;20105;-60
2023/06/10 07:30:43;;;;;;;6.10;3.72;;;;;;;;;;5127529;27;20116;-59
2023/06/10 07:33:10;;;;;;;6.63;3.40;;;;;;;;;;5148082;27;20055;-59
2023/06/10 07:35:37;;;;;;;5.07;3.60;;;;;;;;;;5141008;27;20047;-60
2023/06/10 07:38:03;;;;;;;7.50;3.33;;;;;;;;;;5126321;27;20058;-58
2023/06/10 07:40:30;;;;;;;6.45;3.40;;;;;;;;;;5139955;27;20105;-59
2023/06/10 07:43:00;;;;;;;7.28;3.80;;;;;;;;;;5147137;27;20057;-59
2023/06/10 07:45:26;;;;;;;4.63;3.50;;;;;;;;;;5145516;27;20146;-60
2023/06/10 07:47:53;;;;;;;10.85;3.40;;;;;;;;;;5136683;27;20062;-59
2023/06/10 07:50:19;;;;;;;5.40;3.50;;;;;;;;;;5126704;27;20228;-60
2023/06/10 07:52:45;;;;;;;4.82;3.53;;;;;;;;;;5134228;27;20052;-55
2023/06/10 07:55:12;;;;;;;5.60;3.90;;;;;;;;;;5144803;27;20047;-58
2023/06/10 07:57:38;;;;;;;3.95;3.55;;;;;;;;;;5133034;27;20453;-55
2023/06/10 08:00:05;;;;;;;9.55;3.47;;;;;;;;;;5132196;27;20116;-57
2023/06/10 08:02:32;;;;;;;6.20;3.03;;;;;;;;;;5126943;27;20924;-59
2023/06/10 08:04:58;;;;;;;6.57;3.90;;;;;;;;;;5126620;27;20047;-59
2023/06/10 08:07:25;;;;;;;5.35;3.53;;;;;;;;;;5126253;27;20051;-57
2023/06/10 08:09:51;;;;;;;8.27;3.47;;;;;;;;;;5126442;27;20051;-57
2023/06/10 08:12:18;;;;;;;6.03;3.40;;;;;;;;;;5131655;27;20055;-55
2023/06/10 08:14:44;;;;;;;5.38;3.30;;;;;;;;;;5133393;27;20093;-60
2023/06/10 08:17:11;;;;;;;9.98;4.43;;;;;;;;;;5113941;27;20542;-45
2023/06/10 08:19:37;;;;;;;8.88;3.92;;;;;;;;;;5144755;27;20067;-64
2023/06/10 08:22:03;;;;;;;4.55;3.30;;;;;;;;;;5126499;27;20138;-60
2023/06/10 08:24:30;;;;;;;7.28;3.65;;;;;;;;;;5126479;27;20091;-61
2023/06/10 08:26:57;;;;;;;4.63;3.40;;;;;;;;;;5126322;27;20417;-60
2023/06/10 08:29:24;;;;;;;5.10;3.42;;;;;;;;;;5125829;27;20047;-61
2023/06/10 08:31:50;;;;;;;6.18;3.20;;;;;;;;;;5126449;27;20561;-61
2023/06/10 08:34:17;;;;;;;5.25;3.42;;;;;;;;;;5126154;27;20055;-60
2023/06/10 08:36:43;;;;;;;5.43;3.38;;;;;;;;;;5126150;27;20368;-61
2023/06/10 08:39:10;;;;;;;4.72;3.40;;;;;;;;;;5126312;27;20056;-61
2023/06/10 08:41:41;;;;;;;4.40;3.22;;;;;;;;;;5135456;27;20055;-60
2023/06/10 08:44:18;;;;;;;8.10;4.13;;;;;;;;;;5146691;27;20558;-61
2023/06/10 08:46:45;;;;;;;4.72;3.35;;;;;;;;;;5146597;27;20132;-61
2023/06/10 08:49:16;;;;;;;6.95;3.40;;;;;;;;;;5146663;27;20051;-61
2023/06/10 08:51:42;;;;;;;7.20;4.13;;;;;;;;;;5146935;27;20055;-60
2023/06/10 08:54:17;;;;;;;5.97;3.20;;;;;;;;;;5146291;27;20054;-61
2023/06/10 08:56:44;;;;;;;5.40;3.13;;;;;;;;;;5144520;27;20054;-61
2023/06/10 08:59:11;;;;;;;6.47;3.92;;;;;;;;;;5141187;27;20081;-60
2023/06/10 09:01:38;;;;;;;4.68;3.53;;;;;;;;;;5128973;27;20105;-60
2023/06/10 09:04:05;;;;;;;5.18;3.20;;;;;;;;;;5140576;27;20500;-60
2023/06/10 09:06:32;;;;;;;4.90;3.55;;;;;;;;;;5139423;27;20100;-60
2023/06/10 09:08:59;;;;;;;5.65;3.55;;;;;;;;;;5145688;27;20058;-61
2023/06/10 09:11:29;;;;;;;6.55;4.05;;;;;;;;;;5128424;27;20051;-60
2023/06/10 09:13:55;;;;;;;6.55;4.55;;;;;;;;;;5140268;27;20091;-61
2023/06/10 09:16:21;;;;;;;5.43;3.60;;;;;;;;;;5125698;27;20047;-61
2023/06/10 09:18:48;;;;;;;4.82;3.40;;;;;;;;;;5124993;27;20087;-59
2023/06/10 09:21:14;;;;;;;7.20;3.08;;;;;;;;;;5125153;27;20060;-61
2023/06/10 09:23:42;;;;;;;4.32;3.58;;;;;;;;;;5126366;27;20055;-61
2023/06/10 09:26:10;;;;;;;6.30;4.18;;;;;;;;;;5145944;27;20051;-61
2023/06/10 09:28:36;;;;;;;8.60;3.50;;;;;;;;;;5137327;27;20058;-62
2023/06/10 09:31:09;;;;;;;5.07;3.22;;;;;;;;;;5145373;27;20596;-62
2023/06/10 09:33:41;;;;;;;7.03;3.60;;;;;;;;;;5145564;27;20047;-62
2023/06/10 09:36:08;;;;;;;5.30;3.55;;;;;;;;;;5145779;27;20577;-62
2023/06/10 09:38:35;;;;;;;3.75;3.10;;;;;;;;;;5145630;27;20085;-62
2023/06/10 09:41:02;;;;;;;3.90;2.65;;;;;;;;;;5144387;27;20485;-62
2023/06/10 09:43:41;;;;;;;4.07;3.03;;;;;;;;;;5136987;27;20047;-62
2023/06/10 09:46:17;;;;;;;5.10;3.22;;;;;;;;;;5124936;27;20048;-62
2023/06/10 09:48:46;;;;;;;4.20;3.03;;;;;;;;;;5124347;27;20051;-62
2023/06/10 09:51:13;;;;;;;5.43;3.03;;;;;;;;;;5124650;27;20146;-62
2023/06/10 09:53:39;;;;;;;3.00;2.72;;;;;;;;;;5140608;27;20052;-62
2023/06/10 09:56:06;;;;;;;4.28;2.92;;;;;;;;;;5124655;27;20562;-62
2023/06/10 09:58:37;;;;;;;3.30;2.80;;;;;;;;;;5124831;27;20055;-62
2023/06/10 10:01:08;;;;;;;4.07;3.00;;;;;;;;;;5124412;27;20086;-60
2023/06/10 10:03:46;;;;;;;4.40;2.95;;;;;;;;;;5124246;27;20494;-60
2023/06/10 10:06:13;;;;;;;3.55;2.67;;;;;;;;;;5125177;27;20202;-61
2023/06/10 10:08:39;;;;;;;5.20;3.00;;;;;;;;;;5124740;27;20058;-60
2023/06/10 10:11:05;;;;;;;3.55;2.85;;;;;;;;;;5124231;27;20051;-61
2023/06/10 10:13:35;;;;;;;6.03;3.00;;;;;;;;;;5124538;27;20048;-60
2023/06/10 10:16:04;;;;;;;5.90;2.78;;;;;;;;;;5124525;27;20148;-61
2023/06/10 10:18:31;;;;;;;3.58;2.70;;;;;;;;;;5123899;27;20055;-60
2023/06/10 10:21:01;;;;;;;4.10;2.65;;;;;;;;;;5124068;27;20138;-61
2023/06/10 10:23:40;;;;;;;3.58;2.85;;;;;;;;;;5124252;27;20125;-61
2023/06/10 10:26:09;;;;;;;10.70;2.90;;;;;;;;;;5124780;27;20294;-61
2023/06/10 10:28:46;;;;;;;3.95;3.00;;;;;;;;;;5124213;27;20155;-60
2023/06/10 10:31:15;;;;;;;4.30;2.83;;;;;;;;;;5123722;27;20055;-61
2023/06/10 10:33:54;;;;;;;5.32;2.92;;;;;;;;;;5124292;27;20133;-60
2023/06/10 10:36:20;;;;;;;4.88;3.03;;;;;;;;;;5124375;27;20525;-61
2023/06/10 10:38:48;;;;;;;4.78;3.22;;;;;;;;;;5124618;27;20055;-60
2023/06/10 10:41:18;;;;;;;4.25;2.97;;;;;;;;;;5124035;27;20306;-61
2023/06/10 10:43:46;;;;;;;4.78;3.25;;;;;;;;;;5124050;27;20101;-60
2023/06/10 10:46:13;;;;;;;2.90;2.60;;;;;;;;;;5123588;27;20085;-60
2023/06/10 10:48:43;;;;;;;3.75;2.70;;;;;;;;;;5124434;27;20132;-61
2023/06/10 10:51:10;;;;;;;3.55;2.80;;;;;;;;;;5124840;27;20055;-61
2023/06/10 10:53:37;;;;;;;3.55;2.60;;;;;;;;;;5127835;27;20392;-61
2023/06/10 10:56:04;;;;;;;4.70;2.85;;;;;;;;;;5127403;27;20055;-60
2023/06/10 10:58:31;;;;;;;3.38;2.65;;;;;;;;;;5127757;27;20051;-61
2023/06/10 11:00:58;;;;;;;2.85;2.40;;;;;;;;;;5123383;27;20055;-61
2023/06/10 11:03:28;;;;;;;3.20;2.35;;;;;;;;;;5146394;27;20116;-61
2023/06/10 11:05:56;;;;;;;4.75;2.70;;;;;;;;;;5127448;27;20098;-61
2023/06/10 11:08:32;;;;;;;2.63;2.33;;;;;;;;;;5127399;27;20051;-61
2023/06/10 11:10:58;;;;;;;3.35;2.80;;;;;;;;;;5127664;27;20052;-60
2023/06/10 11:13:25;;;;;;;3.38;2.65;;;;;;;;;;5127235;27;20048;-61
2023/06/10 11:15:56;;;;;;;4.10;2.63;;;;;;;;;;5126987;27;20507;-61
2023/06/10 11:18:26;;;;;;;4.10;3.08;;;;;;;;;;5126895;27;20055;-60
2023/06/10 11:20:57;;;;;;;5.55;3.25;;;;;;;;;;5127577;27;20518;-61
2023/06/10 11:23:26;;;;;;;3.15;2.80;;;;;;;;;;5126902;27;20048;-60
2023/06/10 11:26:11;;;;;;;4.03;3.00;;;;;;;;;;5127464;27;20094;-61
2023/06/10 11:28:38;;;;;;;4.63;3.80;;;;;;;;;;5126940;27;20143;-60
2023/06/10 11:31:05;;;;;;;3.65;3.10;;;;;;;;;;5126239;27;20093;-61
2023/06/10 11:33:32;;;;;;;3.80;3.10;;;;;;;;;;5148085;27;20066;-59
2023/06/10 11:35:58;;;;;;;3.60;3.05;;;;;;;;;;5136856;27;20051;-59
2023/06/10 11:38:25;;;;;;;2.53;2.28;;;;;;;;;;5131408;27;20562;-59
2023/06/10 11:40:51;;;;;;;3.30;2.78;;;;;;;;;;5134084;27;20056;-59
2023/06/10 11:43:18;;;;;;;4.15;2.85;;;;;;;;;;5127921;27;20066;-60
2023/06/10 11:45:44;;;;;;;4.25;2.78;;;;;;;;;;5141051;27;20059;-59
2023/06/10 11:48:12;;;;;;;2.80;2.50;;;;;;;;;;5135563;27;20176;-59
2023/06/10 11:50:41;;;;;;;3.50;2.92;;;;;;;;;;5135698;27;20051;-61
2023/06/10 11:53:08;;;;;;;4.18;2.72;;;;;;;;;;5132374;27;20133;-59
2023/06/10 11:55:40;;;;;;;4.20;3.00;;;;;;;;;;5130699;27;20047;-60
2023/06/10 11:58:33;;;;;;;3.55;2.80;;;;;;;;;;5137171;27;20117;-60
2023/06/10 12:01:01;;;;;;;5.63;2.80;;;;;;;;;;5125321;27;20570;-60
2023/06/10 12:03:35;;;;;;;3.30;2.88;;;;;;;;;;5131337;27;20143;-60
2023/06/10 12:06:03;;;;;;;4.68;2.70;;;;;;;;;;5132415;27;20060;-60
2023/06/10 12:08:29;;;;;;;4.88;3.10;;;;;;;;;;5126823;27;20056;-60
2023/06/10 12:10:56;;;;;;;3.92;2.92;;;;;;;;;;5128833;27;20159;-61
2023/06/10 12:13:26;;;;;;;5.35;2.60;;;;;;;;;;5126439;27;20047;-61
2023/06/10 12:15:53;;;;;;;5.00;3.25;;;;;;;;;;5136256;27;20143;-62
2023/06/10 12:18:20;;;;;;;3.88;2.47;;;;;;;;;;5146360;27;20055;-61
2023/06/10 12:20:46;;;;;;;10.68;3.72;;;;;;;;;;5146653;27;20055;-61
2023/06/10 12:23:13;;;;;;;3.50;3.00;;;;;;;;;;5134678;27;20138;-60
2023/06/10 12:25:39;;;;;;;3.30;3.00;;;;;;;;;;5127381;27;20062;-61
2023/06/10 12:28:10;;;;;;;3.10;2.80;;;;;;;;;;5126122;27;20056;-61
2023/06/10 12:30:36;;;;;;;7.78;2.78;;;;;;;;;;5141503;27;20141;-60
2023/06/10 12:33:03;;;;;;;4.60;3.00;;;;;;;;;;5146520;27;20058;-61
2023/06/10 12:35:29;;;;;;;3.17;2.50;;;;;;;;;;5143139;27;20596;-61
2023/06/10 12:38:00;;;;;;;3.53;3.00;;;;;;;;;;5147252;27;20162;-61
2023/06/10 12:40:28;;;;;;;2.72;2.53;;;;;;;;;;5127363;27;20053;-61
2023/06/10 12:42:56;;;;;;;3.90;2.65;;;;;;;;;;5145592;27;20059;-60
2023/06/10 12:45:32;;;;;;;3.92;3.22;;;;;;;;;;5143686;27;20150;-61
2023/06/10 12:48:10;;;;;;;4.30;3.22;;;;;;;;;;5145697;27;20466;-60
2023/06/10 12:50:37;;;;;;;3.28;2.80;;;;;;;;;;5139723;27;20051;-60
2023/06/10 12:53:04;;;;;;;3.30;2.78;;;;;;;;;;5128644;27;20506;-61
2023/06/10 12:55:31;;;;;;;3.33;2.92;;;;;;;;;;5136557;27;20073;-61
2023/06/10 12:57:57;;;;;;;4.20;3.00;;;;;;;;;;5144915;27;20082;-61
2023/06/10 13:00:29;;;;;;;4.07;2.63;;;;;;;;;;5133290;27;20116;-61
2023/06/10 13:02:56;;;;;;;8.45;3.25;;;;;;;;;;5146213;27;20138;-61
2023/06/10 13:05:23;;;;;;;5.95;3.40;;;;;;;;;;5135989;27;20057;-61
2023/06/10 13:07:50;;;;;;;3.55;2.97;;;;;;;;;;5146028;27;20087;-61
2023/06/10 13:10:16;;;;;;;4.57;3.03;;;;;;;;;;5143710;27;20055;-60
2023/06/10 13:12:43;;;;;;;4.10;2.95;;;;;;;;;;5134046;27;20119;-61
2023/06/10 13:15:14;;;;;;;3.85;2.78;;;;;;;;;;5139013;27;20079;-61
2023/06/10 13:17:42;;;;;;;4.00;2.72;;;;;;;;;;5145782;27;20070;-61
2023/06/10 13:20:08;;;;;;;4.00;2.80;;;;;;;;;;5143224;27;20580;-61
2023/06/10 13:22:36;;;;;;;5.32;3.05;;;;;;;;;;5145997;27;20047;-61
2023/06/10 13:25:03;;;;;;;3.65;2.85;;;;;;;;;;5143218;27;20076;-61
2023/06/10 13:27:30;;;;;;;4.40;3.00;;;;;;;;;;5124961;27;20052;-61
2023/06/10 13:29:56;;;;;;;3.78;3.20;;;;;;;;;;5135658;27;20569;-61
2023/06/10 13:32:22;;;;;;;3.30;3.00;;;;;;;;;;5132422;27;20915;-60
2023/06/10 13:34:51;;;;;;;4.05;2.88;;;;;;;;;;5136907;27;20604;-61
2023/06/10 13:37:17;;;;;;;3.08;2.75;;;;;;;;;;5135580;27;20055;-61
2023/06/10 13:39:45;;;;;;;10.10;2.70;;;;;;;;;;5132239;27;20112;-61
2023/06/10 13:42:12;;;;;;;2.75;2.42;;;;;;;;;;5143968;27;20524;-62
2023/06/10 13:44:38;;;;;;;3.33;2.72;;;;;;;;;;5139362;27;20055;-61
2023/06/10 13:47:05;;;;;;;3.55;2.88;;;;;;;;;;5124225;27;20052;-61
2023/06/10 13:49:31;;;;;;;3.75;2.67;;;;;;;;;;5123933;27;20101;-60
2023/06/10 13:51:59;;;;;;;2.78;2.58;;;;;;;;;;5136973;27;20134;-61
2023/06/10 13:54:26;;;;;;;3.88;2.50;;;;;;;;;;5127560;27;20574;-61
2023/06/10 13:56:53;;;;;;;3.00;2.42;;;;;;;;;;5129755;27;20047;-61
2023/06/10 13:59:20;;;;;;;3.33;3.03;;;;;;;;;;5135579;27;20569;-61
2023/06/10 14:01:46;;;;;;;6.82;2.75;;;;;;;;;;5133082;27;20386;-61
2023/06/10 14:04:13;;;;;;;3.58;2.80;;;;;;;;;;5141998;27;20484;-61
2023/06/10 14:06:39;;;;;;;3.00;2.53;;;;;;;;;;5141756;27;20047;-62
2023/06/10 14:09:06;;;;;;;4.57;2.83;;;;;;;;;;5137799;27;20082;-60
2023/06/10 14:11:32;;;;;;;4.05;3.03;;;;;;;;;;5124878;27;20055;-61
2023/06/10 14:14:00;;;;;;;2.85;2.63;;;;;;;;;;5124083;27;20493;-61
2023/06/10 14:16:27;;;;;;;4.63;2.58;;;;;;;;;;5127775;27;20051;-60
2023/06/10 14:18:53;;;;;;;3.85;2.80;;;;;;;;;;5135801;27;20055;-61
2023/06/10 14:21:20;;;;;;;4.10;2.70;;;;;;;;;;5133945;27;20543;-60
2023/06/10 14:23:48;;;;;;;2.80;2.47;;;;;;;;;;5144723;27;20560;-60
2023/06/10 14:26:15;;;;;;;2.97;2.45;;;;;;;;;;5143222;27;20066;-61
2023/06/10 14:28:41;;;;;;;3.35;2.97;;;;;;;;;;5144092;27;20143;-60
2023/06/10 14:31:08;;;;;;;3.70;2.22;;;;;;;;;;5141790;27;20051;-62
2023/06/10 14:33:34;;;;;;;2.85;2.63;;;;;;;;;;5139451;27;20052;-61
2023/06/10 14:36:01;;;;;;;3.38;3.08;;;;;;;;;;5123602;27;20944;-60
2023/06/10 14:38:27;;;;;;;3.47;2.60;;;;;;;;;;5142167;27;21794;-61
2023/06/10 14:40:53;;;;;;;2.90;2.50;;;;;;;;;;5143523;27;20425;-61
2023/06/10 14:43:20;;;;;;;2.65;2.45;;;;;;;;;;5124120;27;20132;-61